»·PEaware :: SWA3233 KPHX-KLAX

SWA3233 :: KPHX-KLAX

FLIGHT INFORMATION

Flight Status: Arrived
Operator:
Southwest Airlines
More flights by this operator :: More flights under this callsign
Pilot: Anonymous 7386 (7386)
Aircraft: BOEING 737-800
(B738)
More flights by this aircraft type
Origin: KPHX Phoenix Sky Harbor Intl
United States
Destination: KLAX Los Angeles Intl
United States
More flights between these airports :: More routes between these airports
Route: +KEENS2 MESSI ESTWD HLYWD1
File this flight plan on PilotEdge
Remarks:
Altitude:
(Current/Filed)
36,000ft
Speed:
(Current/Filed)
454kts
Departed: 29-Jul-20 08:13 PM
Arrived: 29-Jul-20 09:09 PM
Distance/Time
Traveled:
321nm/0:56
Distance/Time
To Go:
Arrived

Flight Plot

Page will automatically refresh every two minutes.


Map Options




Map Legend


Flown Route
Filed Route
Departure Airport
Arrival Airport
Navaid (VOR, NDB)
Fix

Horizontal Profiles

Position Reports

Time Latitude Longitude Heading Altitude Ground
Speed
29-Jul-20 19:40 33.433726 -111.996198 303 1119ft 0kts
29-Jul-20 19:41 33.433726 -111.996198 303 1119ft 0kts
29-Jul-20 19:42 33.433726 -111.996198 303 1119ft 0kts
29-Jul-20 19:43 33.433726 -111.996198 303 1119ft 0kts
29-Jul-20 19:44 33.433726 -111.996198 303 1119ft 0kts
29-Jul-20 19:45 33.433726 -111.996198 303 1119ft 0kts
29-Jul-20 19:46 33.433726 -111.996198 303 1119ft 0kts
29-Jul-20 19:47 33.433726 -111.996198 303 1119ft 0kts
29-Jul-20 19:48 33.433726 -111.996198 303 1119ft 0kts
29-Jul-20 19:49 33.433726 -111.996198 303 1119ft 0kts
29-Jul-20 19:50 33.433726 -111.996198 303 1119ft 0kts
29-Jul-20 19:51 33.433726 -111.996198 303 1119ft 0kts
29-Jul-20 19:52 33.433726 -111.996198 303 1119ft 0kts
29-Jul-20 19:53 33.433726 -111.996198 303 1119ft 0kts
29-Jul-20 19:54 33.433726 -111.996198 303 1119ft 0kts
29-Jul-20 19:55 33.433726 -111.996198 303 1119ft 0kts
29-Jul-20 19:56 33.433726 -111.996198 303 1119ft 0kts
29-Jul-20 19:57 33.433726 -111.996198 303 1119ft 0kts
29-Jul-20 19:58 33.433726 -111.996198 303 1119ft 0kts
29-Jul-20 19:59 33.433726 -111.996198 303 1119ft 0kts
29-Jul-20 20:00 33.433726 -111.996198 303 1119ft 0kts
29-Jul-20 20:01 33.433726 -111.996198 303 1119ft 0kts
29-Jul-20 20:02 33.433726 -111.996198 303 1119ft 0kts
29-Jul-20 20:03 33.433726 -111.996197 303 1119ft 0kts
29-Jul-20 20:04 33.433688 -111.996130 304 1119ft 1kts
29-Jul-20 20:05 33.433889 -111.995746 178 1119ft 1kts
29-Jul-20 20:06 33.433908 -111.995746 179 1119ft 0kts
29-Jul-20 20:07 33.433908 -111.995746 179 1119ft 0kts
29-Jul-20 20:08 33.433908 -111.995746 179 1119ft 0kts
29-Jul-20 20:09 33.432813 -111.995660 169 1119ft 8kts
29-Jul-20 20:10 33.432130 -111.993889 97 1119ft 5kts
29-Jul-20 20:11 33.431820 -111.993474 169 1119ft 5kts
29-Jul-20 20:12 33.431036 -111.996521 270 1119ft 67kts
29-Jul-20 20:13 33.429938 -112.046854 265 2733ft 177kts
29-Jul-20 20:14 33.415383 -112.117224 249 4260ft 262kts
29-Jul-20 20:15 33.394821 -112.205266 268 7347ft 284kts
29-Jul-20 20:16 33.405871 -112.300904 280 10340ft 301kts
29-Jul-20 20:17 33.422372 -112.411114 281 11969ft 354kts
29-Jul-20 20:18 33.439930 -112.529852 281 14506ft 372kts
29-Jul-20 20:19 33.451236 -112.656462 271 16991ft 390kts
29-Jul-20 20:20 33.456287 -112.789351 284 19339ft 403kts
29-Jul-20 20:21 33.494995 -112.916691 292 21684ft 411kts
29-Jul-20 20:22 33.539323 -113.045850 293 22860ft 418kts
29-Jul-20 20:23 33.583758 -113.173751 293 23571ft 418kts
29-Jul-20 20:24 33.629246 -113.304660 293 25636ft 425kts
29-Jul-20 20:25 33.675123 -113.437066 293 27525ft 432kts
29-Jul-20 20:26 33.721387 -113.571240 293 29308ft 437kts
29-Jul-20 20:27 33.767719 -113.706120 292 31330ft 432kts
29-Jul-20 20:28 33.812511 -113.837693 292 33477ft 419kts
29-Jul-20 20:29 33.855353 -113.965496 292 35341ft 409kts
29-Jul-20 20:30 33.897218 -114.093177 288 35867ft 410kts
29-Jul-20 20:31 33.923762 -114.225575 283 35829ft 411kts
29-Jul-20 20:32 33.947448 -114.362543 283 35816ft 420kts
29-Jul-20 20:33 33.970789 -114.500078 282 35816ft 418kts
29-Jul-20 20:34 33.993968 -114.637950 282 35816ft 419kts
29-Jul-20 20:35 34.016753 -114.774702 281 35816ft 413kts
29-Jul-20 20:36 34.039246 -114.910660 281 35817ft 414kts
29-Jul-20 20:37 34.061583 -115.047105 281 35830ft 413kts
29-Jul-20 20:38 34.083256 -115.183321 281 35856ft 413kts
29-Jul-20 20:39 34.105173 -115.319304 281 35871ft 413kts
29-Jul-20 20:40 34.127088 -115.455435 281 35880ft 413kts
29-Jul-20 20:41 34.148912 -115.591793 280 35889ft 413kts
29-Jul-20 20:42 34.157038 -115.730275 268 35893ft 414kts
29-Jul-20 20:43 34.146306 -115.870172 264 35048ft 421kts
29-Jul-20 20:44 34.133014 -116.009003 264 33048ft 421kts
29-Jul-20 20:45 34.118990 -116.151629 263 31922ft 429kts
29-Jul-20 20:46 34.104833 -116.295047 263 31738ft 430kts
29-Jul-20 20:48 34.089506 -116.438766 262 30102ft 432kts
29-Jul-20 20:49 34.074268 -116.580331 262 27893ft 420kts
29-Jul-20 20:50 34.060918 -116.720715 262 25667ft 413kts
29-Jul-20 20:51 34.048496 -116.856678 262 23461ft 405kts
29-Jul-20 20:52 34.034329 -116.989974 260 21311ft 391kts
29-Jul-20 20:53 34.020990 -117.118712 261 19199ft 377kts
29-Jul-20 20:54 34.006201 -117.242602 259 17186ft 367kts
29-Jul-20 20:55 33.989601 -117.362266 258 15207ft 353kts
29-Jul-20 20:56 33.973390 -117.476511 259 13652ft 328kts
29-Jul-20 20:57 33.993249 -117.578980 286 12357ft 305kts
29-Jul-20 20:58 34.016248 -117.674138 282 10858ft 290kts
29-Jul-20 20:59 34.015538 -117.768075 260 9349ft 266kts
29-Jul-20 21:00 34.006726 -117.855998 261 8248ft 260kts
29-Jul-20 21:01 33.998181 -117.942608 261 7271ft 252kts
29-Jul-20 21:02 33.990291 -118.022915 261 6420ft 229kts
29-Jul-20 21:03 33.982645 -118.100431 262 5184ft 229kts
29-Jul-20 21:03 33.976207 -118.164103 262 4123ft 224kts
29-Jul-20 21:05 33.967864 -118.246963 263 2687ft 200kts
29-Jul-20 21:06 33.961740 -118.307412 264 1680ft 152kts
29-Jul-20 21:06 33.957664 -118.347661 263 1075ft 142kts
29-Jul-20 21:07 33.952944 -118.393755 262 305ft 137kts
29-Jul-20 21:08 33.949584 -118.424895 246 113ft 33kts
29-Jul-20 21:09 33.947975 -118.427337 215 113ft 14kts
29-Jul-20 21:10 33.946591 -118.424716 83 113ft 20kts
29-Jul-20 21:11 33.947293 -118.417898 83 113ft 20kts
29-Jul-20 21:12 33.948138 -118.410959 83 113ft 20kts
29-Jul-20 21:13 33.948841 -118.404095 83 113ft 17kts
29-Jul-20 21:14 33.947848 -118.401707 143 113ft 0kts

Navigation Log

Ident Type
Flight plan parsing failed, navigation log unavailable